Terminal Aerodrome Forecast
Issued by NWS

Home | Current Version | Previous Version | Text Only | Print | Product List | Glossary On
Versions: 1 2 3 4 5 6 7 8 9 10 11 12 13 14 15 16 17 18 19 20 21 22 23
000
FTUS46 KOTX 200537
TAFCOE
TAF
KCOE 200537Z 2006/2106 13009KT P6SM -SHRA BKN035 OVC050
     FM200800 16005KT P6SM FEW012 BKN070
     FM201000 17007KT P6SM BKN012
     FM201900 20008KT P6SM BKN025
     FM202100 23008KT P6SM VCSH BKN035 OVC050
     FM210200 17005KT P6SM VCSH SCT050 BKN060=

USA.gov is the U.S. government's official web portal to all federal, state and local government web resources and services.